Time;durP1;ratioP1;P1;durP2;ratioP2;P2;SDS_P1;SDS_P2;PMS_P1;PMS_P2;Temp;Humidity;BMP_temperature;BMP_pressure;BME280_temperature;BME280_humidity;BME280_pressure;Samples;Min_cycle;Max_cycle;Signal;HPM_P1;HPM_P2
2023/02/20 00:10:54;;;;;;;8.35;3.03;;;;;;;-0.14;70.12;100815.97;30735964;28;96626;-67
2023/02/20 00:25:56;;;;;;;5.68;2.45;;;;;;;0.07;70.28;100804.28;30734176;28;96677;-68
2023/02/20 00:40:56;;;;;;;10.13;2.72;;;;;;;0.28;70.36;100772.53;30733497;28;96743;-67
2023/02/20 00:55:57;;;;;;;7.07;2.30;;;;;;;0.47;70.16;100767.06;30732426;28;97388;-67
2023/02/20 01:10:58;;;;;;;7.78;2.22;;;;;;;0.59;69.93;100763.72;30731367;28;96713;-67
2023/02/20 01:25:58;;;;;;;8.60;2.72;;;;;;;0.54;69.99;100757.91;30746324;28;96653;-67
2023/02/20 01:40:59;;;;;;;7.05;3.17;;;;;;;0.75;70.14;100732.16;30750056;28;97270;-67
2023/02/20 01:56:04;;;;;;;6.65;1.90;;;;;;;1.00;70.05;100709.66;30748947;28;96643;-67
2023/02/20 02:11:08;;;;;;;6.78;2.42;;;;;;;1.19;69.81;100691.00;30747415;28;97627;-67
2023/02/20 02:26:29;;;;;;;;;;;;;;;1.30;69.46;100675.38;30746538;28;98213;-65
2023/02/20 02:41:38;;;;;;;4.47;2.05;;;;;;;1.06;69.51;100672.53;30744495;28;96985;-68
2023/02/20 02:56:45;;;;;;;3.33;1.55;;;;;;;0.86;69.68;100658.03;30743375;28;97117;-67
2023/02/20 03:11:47;;;;;;;5.05;1.80;;;;;;;0.79;70.07;100635.75;30741784;28;97594;-67
2023/02/20 03:26:48;;;;;;;7.30;2.00;;;;;;;0.78;70.10;100618.34;30740037;28;96904;-68
2023/02/20 03:57:15;;;;;;;3.00;1.90;;;;;;;1.28;69.80;100616.06;30738163;28;96579;-67
2023/02/20 04:12:30;;;;;;;3.65;1.95;;;;;;;1.39;68.84;100591.72;30735320;28;97170;-67
2023/02/20 04:27:31;;;;;;;4.23;1.20;;;;;;;1.34;68.53;100571.03;30732726;28;96837;-68
2023/02/20 04:42:31;;;;;;;2.22;1.55;;;;;;;1.37;68.23;100575.22;30729788;28;96937;-68
2023/02/20 04:57:31;;;;;;;4.88;2.17;;;;;;;1.32;67.90;100550.13;30850068;28;97207;-66
2023/02/20 05:12:32;;;;;;;4.45;2.25;;;;;;;1.43;68.20;100531.03;30869631;28;97440;-74
2023/02/20 05:27:32;;;;;;;3.95;2.40;;;;;;;1.66;68.15;100526.03;30868176;28;96747;-74
2023/02/20 05:42:33;;;;;;;4.75;2.25;;;;;;;2.06;68.33;100522.44;30866524;28;96754;-75
2023/02/20 05:57:33;;;;;;;4.70;2.30;;;;;;;2.22;68.46;100514.31;30866082;28;97068;-75
2023/02/20 06:12:33;;;;;;;2.95;2.42;;;;;;;2.27;68.22;100505.16;30863214;28;96833;-77
2023/02/20 06:27:37;;;;;;;12.82;4.03;;;;;;;2.30;68.39;100498.84;30864067;28;97218;-76
2023/02/20 06:42:38;;;;;;;7.73;3.37;;;;;;;2.43;68.79;100483.84;30857921;28;96682;-76
2023/02/20 06:57:38;;;;;;;6.57;2.85;;;;;;;2.64;68.95;100476.19;30856997;28;96776;-77
2023/02/20 07:12:39;;;;;;;9.00;3.28;;;;;;;3.00;69.40;100466.53;30856088;28;96950;-74
2023/02/20 07:27:39;;;;;;;6.05;2.97;;;;;;;3.25;69.11;100443.63;30846080;28;97494;-70
2023/02/20 07:42:39;;;;;;;5.45;2.47;;;;;;;3.67;69.82;100396.50;30731474;28;96882;-74
2023/02/20 07:57:40;;;;;;;6.20;3.03;;;;;;;4.26;69.56;100381.28;30781415;28;97240;-77
2023/02/20 08:12:41;;;;;;;9.00;4.10;;;;;;;4.46;69.13;100363.00;30853564;28;97281;-77
2023/02/20 08:27:43;;;;;;;10.30;4.05;;;;;;;4.69;69.02;100342.63;30842185;28;96730;-71
2023/02/20 08:42:43;;;;;;;8.88;4.05;;;;;;;5.17;68.88;100323.59;30840045;28;96757;-73
2023/02/20 08:57:44;;;;;;;11.18;4.63;;;;;;;6.14;68.63;100286.97;30840092;28;96887;-71
2023/02/20 09:12:45;;;;;;;8.50;3.78;;;;;;;6.60;66.65;100272.16;30854981;28;98610;-73
2023/02/20 09:27:46;;;;;;;7.45;3.83;;;;;;;6.60;66.67;100245.69;30838018;28;97452;-70
2023/02/20 09:43:01;;;;;;;7.95;4.10;;;;;;;7.22;65.40;100210.78;30847674;28;97609;-70
2023/02/20 09:58:04;;;;;;;8.37;4.33;;;;;;;7.37;64.81;100192.56;30857096;28;97203;-72
2023/02/20 10:13:10;;;;;;;7.53;4.60;;;;;;;7.36;64.94;100151.13;30854822;28;97057;-73
2023/02/20 10:28:17;;;;;;;6.35;3.88;;;;;;;7.83;63.14;100100.50;30861547;28;96975;-74
2023/02/20 10:43:22;;;;;;;6.83;3.40;;;;;;;8.67;61.44;100036.28;30812420;28;97469;-74
2023/02/20 10:58:37;;;;;;;4.07;2.40;;;;;;;11.06;56.76;99988.69;30853913;28;96834;-74
2023/02/20 11:13:37;;;;;;;4.60;2.33;;;;;;;10.20;57.85;99980.69;30856267;28;97478;-74
2023/02/20 11:28:38;;;;;;;4.30;2.33;;;;;;;11.71;55.82;99965.09;30770268;28;97903;-76
2023/02/20 11:43:42;;;;;;;4.30;2.58;;;;;;;13.58;51.45;99931.53;30793579;28;97342;-74
2023/02/20 11:58:45;;;;;;;5.23;2.40;;;;;;;13.02;49.91;99884.19;30846006;28;99305;-75
2023/02/20 12:13:48;;;;;;;2.67;1.60;;;;;;;12.29;49.11;99836.25;30869066;28;99983;-72
2023/02/20 12:29:12;;;;;;;8.73;3.70;;;;;;;11.27;51.45;99803.19;30752075;28;98419;-69
2023/02/20 12:44:44;;;;;;;4.87;2.93;;;;;;;15.84;44.12;99740.66;30727533;28;97284;-70
2023/02/20 12:59:59;;;;;;;6.03;3.27;;;;;;;15.83;41.43;99725.59;30724191;28;97523;-72
2023/02/20 13:15:41;;;;;;;4.77;3.27;;;;;;;15.15;41.65;99670.56;30730671;28;96993;-74
2023/02/20 13:30:41;;;;;;;5.17;3.30;;;;;;;16.10;41.18;99667.09;30763134;28;97313;-70
2023/02/20 13:45:47;;;;;;;8.13;3.22;;;;;;;17.66;37.39;99646.31;30859704;28;97099;-71
2023/02/20 14:00:51;;;;;;;2.90;1.17;;;;;;;17.84;36.91;99634.66;30861946;28;97132;-72
2023/02/20 14:15:55;;;;;;;3.10;1.20;;;;;;;17.79;34.24;99627.25;30859559;28;97269;-71
2023/02/20 14:31:02;;;;;;;1.53;1.03;;;;;;;15.18;37.86;99614.59;30859942;28;97135;-71
2023/02/20 14:46:06;;;;;;;3.50;1.40;;;;;;;13.25;42.17;99599.59;30857776;28;96645;-71
2023/02/20 15:01:34;;;;;;;4.60;1.50;;;;;;;12.18;45.24;99591.94;30857830;28;96758;-70
2023/02/20 15:16:38;;;;;;;3.73;1.83;;;;;;;11.80;46.69;99611.72;30821746;28;96989;-70
2023/02/20 15:31:39;;;;;;;4.53;1.67;;;;;;;11.52;48.71;99628.50;30784751;28;97421;-69
2023/02/20 15:46:40;;;;;;;4.00;1.60;;;;;;;11.34;49.91;99646.78;30811003;28;96792;-70
2023/02/20 16:01:40;;;;;;;2.92;1.50;;;;;;;11.22;51.84;99650.94;30785181;28;97617;-69
2023/02/20 16:16:46;;;;;;;3.22;1.15;;;;;;;11.18;53.01;99672.66;30773535;28;97439;-69
2023/02/20 16:31:59;;;;;;;3.70;1.70;;;;;;;11.09;53.83;99681.78;30743579;28;97261;-73
2023/02/20 16:46:59;;;;;;;3.53;1.60;;;;;;;10.91;55.07;99700.00;30727046;28;96749;-68
2023/02/20 17:02:00;;;;;;;4.45;1.70;;;;;;;10.71;56.45;99708.53;30785940;28;96757;-71
2023/02/20 17:17:01;;;;;;;4.05;1.58;;;;;;;10.50;56.91;99715.38;30795907;28;96768;-71
2023/02/20 17:32:01;;;;;;;3.10;1.40;;;;;;;10.30;57.92;99740.84;30795002;28;96941;-70
2023/02/20 17:47:02;;;;;;;3.22;1.70;;;;;;;10.14;58.73;99747.97;30821854;28;96993;-71
2023/02/20 18:02:02;;;;;;;3.10;1.85;;;;;;;9.99;59.51;99755.03;30781391;28;96688;-67
2023/02/20 18:17:03;;;;;;;3.70;1.98;;;;;;;9.53;60.60;99755.84;30814729;28;97435;-69
2023/02/20 18:32:03;;;;;;;3.80;1.90;;;;;;;9.16;62.50;99733.41;30852201;28;96820;-71
2023/02/20 18:47:04;;;;;;;4.60;2.00;;;;;;;9.12;63.46;99716.16;30810609;28;97337;-73
2023/02/20 19:02:04;;;;;;;4.53;2.58;;;;;;;9.13;63.54;99702.69;30779930;28;97636;-71
2023/02/20 19:17:06;;;;;;;6.18;2.78;;;;;;;9.14;63.84;99677.78;30787942;28;97969;-72
2023/02/20 19:32:07;;;;;;;10.73;3.90;;;;;;;9.09;63.75;99648.22;30766003;28;97463;-74
2023/02/20 19:47:07;;;;;;;5.20;2.60;;;;;;;9.18;63.86;99653.50;30725451;28;97203;-73
2023/02/20 20:02:09;;;;;;;4.65;2.90;;;;;;;9.19;63.53;99647.19;30772565;28;97292;-70
2023/02/20 20:17:09;;;;;;;6.30;2.30;;;;;;;9.17;63.15;99654.50;30782499;28;96850;-68
2023/02/20 20:32:09;;;;;;;2.78;1.65;;;;;;;9.21;62.83;99650.50;30789141;28;97632;-67
2023/02/20 20:47:10;;;;;;;4.50;1.33;;;;;;;9.22;62.28;99621.06;30786284;28;97243;-67
2023/02/20 21:02:10;;;;;;;3.08;1.15;;;;;;;9.27;61.97;99647.97;30743285;28;97342;-67
2023/02/20 21:17:12;;;;;;;2.33;1.20;;;;;;;9.19;61.52;99639.22;30842557;28;96685;-67
2023/02/20 21:32:12;;;;;;;2.50;1.30;;;;;;;9.23;61.35;99624.59;30850288;28;97020;-67
2023/02/20 21:47:14;;;;;;;3.42;1.33;;;;;;;9.17;61.39;99630.59;30868984;28;96623;-68
